sensor_id;sensor_type;location;lat;lon;timestamp;P1;durP1;ratioP1;P2;durP2;ratioP2
25950;SDS011;13748;52.240;6.002;2023-04-15T00:01:25;17.17;;;11.37;;
25950;SDS011;13748;52.240;6.002;2023-04-15T00:03:52;19.73;;;11.80;;
25950;SDS011;13748;52.240;6.002;2023-04-15T00:06:20;16.00;;;10.70;;
25950;SDS011;13748;52.240;6.002;2023-04-15T00:08:47;15.90;;;10.40;;
25950;SDS011;13748;52.240;6.002;2023-04-15T00:11:16;16.17;;;10.40;;
25950;SDS011;13748;52.240;6.002;2023-04-15T00:13:43;14.73;;;10.37;;
25950;SDS011;13748;52.240;6.002;2023-04-15T00:16:10;15.87;;;10.60;;
25950;SDS011;13748;52.240;6.002;2023-04-15T00:18:37;22.43;;;11.13;;
25950;SDS011;13748;52.240;6.002;2023-04-15T00:21:04;14.97;;;10.53;;
25950;SDS011;13748;52.240;6.002;2023-04-15T00:23:31;13.20;;;9.47;;
25950;SDS011;13748;52.240;6.002;2023-04-15T00:25:58;14.30;;;10.70;;
25950;SDS011;13748;52.240;6.002;2023-04-15T00:28:24;14.63;;;10.73;;
25950;SDS011;13748;52.240;6.002;2023-04-15T00:30:52;15.20;;;10.23;;
25950;SDS011;13748;52.240;6.002;2023-04-15T00:33:19;16.13;;;10.50;;
25950;SDS011;13748;52.240;6.002;2023-04-15T00:35:46;15.70;;;9.53;;
25950;SDS011;13748;52.240;6.002;2023-04-15T00:38:12;15.17;;;10.67;;
25950;SDS011;13748;52.240;6.002;2023-04-15T00:40:39;18.47;;;11.20;;
25950;SDS011;13748;52.240;6.002;2023-04-15T00:43:07;13.23;;;10.30;;
25950;SDS011;13748;52.240;6.002;2023-04-15T00:45:33;14.97;;;10.13;;
25950;SDS011;13748;52.240;6.002;2023-04-15T00:48:00;16.30;;;9.90;;
25950;SDS011;13748;52.240;6.002;2023-04-15T00:50:27;15.67;;;10.73;;
25950;SDS011;13748;52.240;6.002;2023-04-15T00:52:54;14.30;;;10.00;;
25950;SDS011;13748;52.240;6.002;2023-04-15T00:55:21;18.53;;;11.10;;
25950;SDS011;13748;52.240;6.002;2023-04-15T00:57:48;15.90;;;11.33;;
25950;SDS011;13748;52.240;6.002;2023-04-15T01:00:15;14.40;;;11.13;;
25950;SDS011;13748;52.240;6.002;2023-04-15T01:02:43;13.80;;;10.83;;
25950;SDS011;13748;52.240;6.002;2023-04-15T01:05:10;15.20;;;10.40;;
25950;SDS011;13748;52.240;6.002;2023-04-15T01:07:37;16.67;;;11.20;;
25950;SDS011;13748;52.240;6.002;2023-04-15T01:10:04;15.23;;;11.67;;
25950;SDS011;13748;52.240;6.002;2023-04-15T01:12:31;16.10;;;11.20;;
25950;SDS011;13748;52.240;6.002;2023-04-15T01:14:59;18.13;;;11.33;;
25950;SDS011;13748;52.240;6.002;2023-04-15T01:17:27;17.23;;;11.17;;
25950;SDS011;13748;52.240;6.002;2023-04-15T01:19:54;18.23;;;11.97;;
25950;SDS011;13748;52.240;6.002;2023-04-15T01:22:24;17.87;;;11.37;;
25950;SDS011;13748;52.240;6.002;2023-04-15T01:25:12;17.27;;;11.50;;
25950;SDS011;13748;52.240;6.002;2023-04-15T01:27:43;17.63;;;11.03;;
25950;SDS011;13748;52.240;6.002;2023-04-15T01:30:10;18.70;;;11.70;;
25950;SDS011;13748;52.240;6.002;2023-04-15T01:32:37;15.00;;;10.97;;
25950;SDS011;13748;52.240;6.002;2023-04-15T01:35:04;14.47;;;10.60;;
25950;SDS011;13748;52.240;6.002;2023-04-15T01:37:31;17.57;;;11.40;;
25950;SDS011;13748;52.240;6.002;2023-04-15T01:39:59;18.47;;;11.07;;
25950;SDS011;13748;52.240;6.002;2023-04-15T01:42:26;17.07;;;10.93;;
25950;SDS011;13748;52.240;6.002;2023-04-15T01:44:53;18.10;;;10.83;;
25950;SDS011;13748;52.240;6.002;2023-04-15T01:47:19;18.10;;;10.70;;
25950;SDS011;13748;52.240;6.002;2023-04-15T01:49:47;16.77;;;11.37;;
25950;SDS011;13748;52.240;6.002;2023-04-15T01:52:13;15.87;;;11.33;;
25950;SDS011;13748;52.240;6.002;2023-04-15T01:54:40;13.60;;;11.17;;
25950;SDS011;13748;52.240;6.002;2023-04-15T01:57:07;15.43;;;11.30;;
25950;SDS011;13748;52.240;6.002;2023-04-15T01:59:35;14.00;;;10.70;;
25950;SDS011;13748;52.240;6.002;2023-04-15T02:02:02;16.30;;;10.87;;
25950;SDS011;13748;52.240;6.002;2023-04-15T02:04:29;15.57;;;10.63;;
25950;SDS011;13748;52.240;6.002;2023-04-15T02:06:56;18.57;;;11.03;;
25950;SDS011;13748;52.240;6.002;2023-04-15T02:09:23;16.43;;;11.53;;
25950;SDS011;13748;52.240;6.002;2023-04-15T02:11:51;18.30;;;10.87;;
25950;SDS011;13748;52.240;6.002;2023-04-15T02:14:19;15.27;;;10.70;;
25950;SDS011;13748;52.240;6.002;2023-04-15T02:16:46;14.73;;;10.37;;
25950;SDS011;13748;52.240;6.002;2023-04-15T02:19:13;15.77;;;10.93;;
25950;SDS011;13748;52.240;6.002;2023-04-15T02:21:40;14.57;;;10.33;;
25950;SDS011;13748;52.240;6.002;2023-04-15T02:24:07;18.97;;;12.07;;
25950;SDS011;13748;52.240;6.002;2023-04-15T02:26:34;16.80;;;11.70;;
25950;SDS011;13748;52.240;6.002;2023-04-15T02:29:01;16.80;;;11.53;;
25950;SDS011;13748;52.240;6.002;2023-04-15T02:31:28;15.70;;;11.17;;
25950;SDS011;13748;52.240;6.002;2023-04-15T02:33:55;14.50;;;10.47;;
25950;SDS011;13748;52.240;6.002;2023-04-15T02:36:22;15.30;;;10.37;;
25950;SDS011;13748;52.240;6.002;2023-04-15T02:38:49;19.77;;;11.37;;
25950;SDS011;13748;52.240;6.002;2023-04-15T02:41:16;19.20;;;11.50;;
25950;SDS011;13748;52.240;6.002;2023-04-15T02:43:43;15.10;;;10.53;;
25950;SDS011;13748;52.240;6.002;2023-04-15T02:46:09;17.40;;;10.63;;
25950;SDS011;13748;52.240;6.002;2023-04-15T02:48:40;17.70;;;11.43;;
25950;SDS011;13748;52.240;6.002;2023-04-15T02:51:11;16.53;;;10.47;;
25950;SDS011;13748;52.240;6.002;2023-04-15T02:53:39;17.83;;;10.80;;
25950;SDS011;13748;52.240;6.002;2023-04-15T02:56:07;16.23;;;10.83;;
25950;SDS011;13748;52.240;6.002;2023-04-15T02:58:34;17.97;;;10.20;;
25950;SDS011;13748;52.240;6.002;2023-04-15T03:01:02;18.03;;;11.50;;
25950;SDS011;13748;52.240;6.002;2023-04-15T03:03:29;15.50;;;10.40;;
25950;SDS011;13748;52.240;6.002;2023-04-15T03:05:56;19.37;;;11.20;;
25950;SDS011;13748;52.240;6.002;2023-04-15T03:08:23;14.93;;;10.80;;
25950;SDS011;13748;52.240;6.002;2023-04-15T03:10:49;17.90;;;11.77;;
25950;SDS011;13748;52.240;6.002;2023-04-15T03:13:18;16.97;;;11.03;;
25950;SDS011;13748;52.240;6.002;2023-04-15T03:15:45;16.17;;;10.13;;
25950;SDS011;13748;52.240;6.002;2023-04-15T03:18:12;16.17;;;11.27;;
25950;SDS011;13748;52.240;6.002;2023-04-15T03:20:39;18.23;;;10.37;;
25950;SDS011;13748;52.240;6.002;2023-04-15T03:23:06;15.07;;;9.90;;
25950;SDS011;13748;52.240;6.002;2023-04-15T03:25:33;18.03;;;10.27;;
25950;SDS011;13748;52.240;6.002;2023-04-15T03:28:02;19.73;;;11.00;;
25950;SDS011;13748;52.240;6.002;2023-04-15T03:30:29;20.33;;;11.03;;
25950;SDS011;13748;52.240;6.002;2023-04-15T03:32:56;18.57;;;11.80;;
25950;SDS011;13748;52.240;6.002;2023-04-15T03:35:23;19.83;;;11.60;;
25950;SDS011;13748;52.240;6.002;2023-04-15T03:37:50;13.10;;;9.73;;
25950;SDS011;13748;52.240;6.002;2023-04-15T03:40:17;14.67;;;9.63;;
25950;SDS011;13748;52.240;6.002;2023-04-15T03:42:44;17.03;;;11.00;;
25950;SDS011;13748;52.240;6.002;2023-04-15T03:45:11;20.70;;;11.47;;
25950;SDS011;13748;52.240;6.002;2023-04-15T03:47:37;19.33;;;11.07;;
25950;SDS011;13748;52.240;6.002;2023-04-15T03:50:04;16.27;;;11.03;;
25950;SDS011;13748;52.240;6.002;2023-04-15T03:52:33;18.53;;;10.47;;
25950;SDS011;13748;52.240;6.002;2023-04-15T03:54:59;18.70;;;11.20;;
25950;SDS011;13748;52.240;6.002;2023-04-15T03:57:26;19.20;;;11.20;;
25950;SDS011;13748;52.240;6.002;2023-04-15T03:59:53;18.23;;;11.80;;
25950;SDS011;13748;52.240;6.002;2023-04-15T04:02:20;20.70;;;11.73;;
25950;SDS011;13748;52.240;6.002;2023-04-15T04:04:48;20.17;;;13.03;;
25950;SDS011;13748;52.240;6.002;2023-04-15T04:07:16;16.83;;;10.97;;
25950;SDS011;13748;52.240;6.002;2023-04-15T04:09:43;18.43;;;12.10;;
25950;SDS011;13748;52.240;6.002;2023-04-15T04:12:12;21.47;;;11.17;;
25950;SDS011;13748;52.240;6.002;2023-04-15T04:14:39;21.17;;;13.03;;
25950;SDS011;13748;52.240;6.002;2023-04-15T04:17:06;22.73;;;12.33;;
25950;SDS011;13748;52.240;6.002;2023-04-15T04:19:33;24.20;;;13.30;;
25950;SDS011;13748;52.240;6.002;2023-04-15T04:22:00;21.87;;;12.67;;
25950;SDS011;13748;52.240;6.002;2023-04-15T04:24:27;23.97;;;13.93;;
25950;SDS011;13748;52.240;6.002;2023-04-15T04:26:54;26.27;;;13.30;;
25950;SDS011;13748;52.240;6.002;2023-04-15T04:29:22;22.47;;;13.10;;
25950;SDS011;13748;52.240;6.002;2023-04-15T04:31:49;23.33;;;13.40;;
25950;SDS011;13748;52.240;6.002;2023-04-15T04:34:16;23.03;;;14.37;;
25950;SDS011;13748;52.240;6.002;2023-04-15T04:36:43;22.77;;;12.83;;
25950;SDS011;13748;52.240;6.002;2023-04-15T04:39:09;22.20;;;12.37;;
25950;SDS011;13748;52.240;6.002;2023-04-15T04:41:36;21.60;;;12.50;;
25950;SDS011;13748;52.240;6.002;2023-04-15T04:44:03;24.70;;;12.73;;
25950;SDS011;13748;52.240;6.002;2023-04-15T04:46:29;22.33;;;13.43;;
25950;SDS011;13748;52.240;6.002;2023-04-15T04:48:57;20.80;;;12.17;;
25950;SDS011;13748;52.240;6.002;2023-04-15T04:51:23;22.80;;;13.77;;
25950;SDS011;13748;52.240;6.002;2023-04-15T04:53:51;23.73;;;13.27;;
25950;SDS011;13748;52.240;6.002;2023-04-15T04:56:18;21.10;;;13.27;;
25950;SDS011;13748;52.240;6.002;2023-04-15T04:58:49;24.23;;;13.63;;
25950;SDS011;13748;52.240;6.002;2023-04-15T05:01:19;24.67;;;14.70;;
25950;SDS011;13748;52.240;6.002;2023-04-15T05:03:46;28.07;;;14.13;;
25950;SDS011;13748;52.240;6.002;2023-04-15T05:06:16;29.40;;;13.20;;
25950;SDS011;13748;52.240;6.002;2023-04-15T05:08:43;22.67;;;13.43;;
25950;SDS011;13748;52.240;6.002;2023-04-15T05:11:11;24.23;;;14.73;;
25950;SDS011;13748;52.240;6.002;2023-04-15T05:13:38;28.00;;;15.63;;
25950;SDS011;13748;52.240;6.002;2023-04-15T05:16:05;25.20;;;14.50;;
25950;SDS011;13748;52.240;6.002;2023-04-15T05:18:32;24.03;;;13.83;;
25950;SDS011;13748;52.240;6.002;2023-04-15T05:21:01;22.43;;;14.30;;
25950;SDS011;13748;52.240;6.002;2023-04-15T05:23:28;24.70;;;13.60;;
25950;SDS011;13748;52.240;6.002;2023-04-15T05:25:55;23.07;;;14.07;;
25950;SDS011;13748;52.240;6.002;2023-04-15T05:28:22;21.57;;;13.30;;
25950;SDS011;13748;52.240;6.002;2023-04-15T05:30:48;26.03;;;14.27;;
25950;SDS011;13748;52.240;6.002;2023-04-15T05:33:15;23.40;;;14.60;;
25950;SDS011;13748;52.240;6.002;2023-04-15T05:35:42;25.70;;;15.33;;
25950;SDS011;13748;52.240;6.002;2023-04-15T05:38:09;25.53;;;15.43;;
25950;SDS011;13748;52.240;6.002;2023-04-15T05:40:38;27.47;;;14.60;;
25950;SDS011;13748;52.240;6.002;2023-04-15T05:43:05;23.03;;;14.13;;
25950;SDS011;13748;52.240;6.002;2023-04-15T05:45:31;23.23;;;13.93;;
25950;SDS011;13748;52.240;6.002;2023-04-15T05:47:58;20.60;;;12.80;;
25950;SDS011;13748;52.240;6.002;2023-04-15T05:50:25;25.13;;;13.37;;
25950;SDS011;13748;52.240;6.002;2023-04-15T05:52:52;20.87;;;12.77;;
25950;SDS011;13748;52.240;6.002;2023-04-15T05:55:21;27.20;;;13.87;;
25950;SDS011;13748;52.240;6.002;2023-04-15T05:57:48;26.93;;;14.10;;
25950;SDS011;13748;52.240;6.002;2023-04-15T06:00:17;18.67;;;13.13;;
25950;SDS011;13748;52.240;6.002;2023-04-15T06:02:44;23.67;;;13.23;;
25950;SDS011;13748;52.240;6.002;2023-04-15T06:05:11;20.60;;;12.87;;
25950;SDS011;13748;52.240;6.002;2023-04-15T06:07:40;23.47;;;13.70;;
25950;SDS011;13748;52.240;6.002;2023-04-15T06:10:13;23.87;;;14.40;;
25950;SDS011;13748;52.240;6.002;2023-04-15T06:12:40;22.30;;;13.30;;
25950;SDS011;13748;52.240;6.002;2023-04-15T06:15:07;20.00;;;12.53;;
25950;SDS011;13748;52.240;6.002;2023-04-15T06:17:35;20.17;;;13.33;;
25950;SDS011;13748;52.240;6.002;2023-04-15T06:20:02;20.30;;;13.77;;
25950;SDS011;13748;52.240;6.002;2023-04-15T06:22:31;25.60;;;12.97;;
25950;SDS011;13748;52.240;6.002;2023-04-15T06:24:57;24.80;;;14.60;;
25950;SDS011;13748;52.240;6.002;2023-04-15T06:27:24;23.20;;;13.60;;
25950;SDS011;13748;52.240;6.002;2023-04-15T06:29:51;20.53;;;12.77;;
25950;SDS011;13748;52.240;6.002;2023-04-15T06:32:18;17.80;;;12.17;;
25950;SDS011;13748;52.240;6.002;2023-04-15T06:34:44;18.60;;;12.87;;
25950;SDS011;13748;52.240;6.002;2023-04-15T06:37:11;15.93;;;11.00;;
25950;SDS011;13748;52.240;6.002;2023-04-15T06:39:41;17.73;;;11.80;;
25950;SDS011;13748;52.240;6.002;2023-04-15T06:42:08;14.67;;;11.20;;
25950;SDS011;13748;52.240;6.002;2023-04-15T06:44:36;15.90;;;10.83;;
25950;SDS011;13748;52.240;6.002;2023-04-15T06:47:03;17.13;;;11.40;;
25950;SDS011;13748;52.240;6.002;2023-04-15T06:49:30;18.30;;;12.00;;
25950;SDS011;13748;52.240;6.002;2023-04-15T06:51:58;16.67;;;11.47;;
25950;SDS011;13748;52.240;6.002;2023-04-15T06:54:26;18.63;;;11.90;;
25950;SDS011;13748;52.240;6.002;2023-04-15T06:56:52;19.70;;;11.50;;
25950;SDS011;13748;52.240;6.002;2023-04-15T06:59:19;18.53;;;12.63;;
25950;SDS011;13748;52.240;6.002;2023-04-15T07:01:46;17.27;;;11.63;;
25950;SDS011;13748;52.240;6.002;2023-04-15T07:04:13;18.35;;;15.32;;
25950;SDS011;13748;52.240;6.002;2023-04-15T07:06:40;19.50;;;12.90;;
25950;SDS011;13748;52.240;6.002;2023-04-15T07:09:07;17.83;;;13.77;;
25950;SDS011;13748;52.240;6.002;2023-04-15T07:11:34;19.33;;;13.30;;
25950;SDS011;13748;52.240;6.002;2023-04-15T07:14:01;17.67;;;13.13;;
25950;SDS011;13748;52.240;6.002;2023-04-15T07:16:28;18.67;;;12.97;;
25950;SDS011;13748;52.240;6.002;2023-04-15T07:18:55;19.30;;;12.90;;
25950;SDS011;13748;52.240;6.002;2023-04-15T07:21:23;16.20;;;12.83;;
25950;SDS011;13748;52.240;6.002;2023-04-15T07:23:50;17.17;;;12.20;;
25950;SDS011;13748;52.240;6.002;2023-04-15T07:26:17;17.40;;;13.03;;
25950;SDS011;13748;52.240;6.002;2023-04-15T07:28:43;19.37;;;13.40;;
25950;SDS011;13748;52.240;6.002;2023-04-15T07:31:12;18.07;;;11.57;;
25950;SDS011;13748;52.240;6.002;2023-04-15T07:33:41;14.70;;;11.10;;
25950;SDS011;13748;52.240;6.002;2023-04-15T07:36:08;14.40;;;11.03;;
25950;SDS011;13748;52.240;6.002;2023-04-15T07:38:35;14.13;;;9.97;;
25950;SDS011;13748;52.240;6.002;2023-04-15T07:41:02;12.90;;;9.87;;
25950;SDS011;13748;52.240;6.002;2023-04-15T07:43:30;10.97;;;9.17;;
25950;SDS011;13748;52.240;6.002;2023-04-15T07:45:59;14.37;;;9.87;;
25950;SDS011;13748;52.240;6.002;2023-04-15T07:48:26;13.23;;;10.20;;
25950;SDS011;13748;52.240;6.002;2023-04-15T07:50:53;12.07;;;9.27;;
25950;SDS011;13748;52.240;6.002;2023-04-15T07:53:21;11.90;;;8.87;;
25950;SDS011;13748;52.240;6.002;2023-04-15T07:55:49;11.97;;;8.50;;
25950;SDS011;13748;52.240;6.002;2023-04-15T07:58:16;12.17;;;8.30;;
25950;SDS011;13748;52.240;6.002;2023-04-15T08:00:43;10.97;;;8.00;;
25950;SDS011;13748;52.240;6.002;2023-04-15T08:03:09;12.23;;;7.63;;
25950;SDS011;13748;52.240;6.002;2023-04-15T08:05:37;10.73;;;7.33;;
25950;SDS011;13748;52.240;6.002;2023-04-15T08:08:03;10.07;;;6.67;;
25950;SDS011;13748;52.240;6.002;2023-04-15T08:10:30;8.87;;;7.17;;
25950;SDS011;13748;52.240;6.002;2023-04-15T08:12:57;8.17;;;6.77;;
25950;SDS011;13748;52.240;6.002;2023-04-15T08:15:24;7.93;;;6.47;;
25950;SDS011;13748;52.240;6.002;2023-04-15T08:17:51;9.07;;;6.73;;
25950;SDS011;13748;52.240;6.002;2023-04-15T08:20:18;9.43;;;7.07;;
25950;SDS011;13748;52.240;6.002;2023-04-15T08:22:46;9.80;;;6.77;;
25950;SDS011;13748;52.240;6.002;2023-04-15T08:25:18;8.67;;;7.00;;
25950;SDS011;13748;52.240;6.002;2023-04-15T08:27:45;12.50;;;7.00;;
25950;SDS011;13748;52.240;6.002;2023-04-15T08:30:12;9.53;;;6.73;;
25950;SDS011;13748;52.240;6.002;2023-04-15T08:32:41;9.40;;;6.93;;
25950;SDS011;13748;52.240;6.002;2023-04-15T08:35:12;8.80;;;6.50;;
25950;SDS011;13748;52.240;6.002;2023-04-15T08:37:39;7.57;;;6.07;;
25950;SDS011;13748;52.240;6.002;2023-04-15T08:40:06;11.40;;;6.77;;
25950;SDS011;13748;52.240;6.002;2023-04-15T08:42:41;8.73;;;6.47;;
25950;SDS011;13748;52.240;6.002;2023-04-15T08:45:11;9.13;;;5.77;;
25950;SDS011;13748;52.240;6.002;2023-04-15T08:47:38;9.00;;;6.23;;
25950;SDS011;13748;52.240;6.002;2023-04-15T08:50:07;8.37;;;6.47;;
25950;SDS011;13748;52.240;6.002;2023-04-15T08:52:35;8.83;;;6.70;;
25950;SDS011;13748;52.240;6.002;2023-04-15T08:55:02;8.73;;;6.73;;
25950;SDS011;13748;52.240;6.002;2023-04-15T08:57:31;9.47;;;6.90;;
25950;SDS011;13748;52.240;6.002;2023-04-15T09:00:00;8.43;;;6.43;;
25950;SDS011;13748;52.240;6.002;2023-04-15T09:02:31;10.93;;;7.07;;
25950;SDS011;13748;52.240;6.002;2023-04-15T09:04:58;10.03;;;7.23;;
25950;SDS011;13748;52.240;6.002;2023-04-15T09:07:32;10.90;;;6.43;;
25950;SDS011;13748;52.240;6.002;2023-04-15T09:09:59;8.23;;;6.30;;
25950;SDS011;13748;52.240;6.002;2023-04-15T09:12:26;9.07;;;6.80;;
25950;SDS011;13748;52.240;6.002;2023-04-15T09:14:53;9.83;;;6.70;;
25950;SDS011;13748;52.240;6.002;2023-04-15T09:17:20;8.20;;;6.13;;
25950;SDS011;13748;52.240;6.002;2023-04-15T09:19:47;10.57;;;7.00;;
25950;SDS011;13748;52.240;6.002;2023-04-15T09:22:14;8.97;;;5.93;;
25950;SDS011;13748;52.240;6.002;2023-04-15T09:24:41;10.13;;;6.60;;
25950;SDS011;13748;52.240;6.002;2023-04-15T09:27:08;8.37;;;5.90;;
25950;SDS011;13748;52.240;6.002;2023-04-15T09:29:36;7.87;;;6.33;;
25950;SDS011;13748;52.240;6.002;2023-04-15T09:32:09;8.10;;;5.87;;
25950;SDS011;13748;52.240;6.002;2023-04-15T09:34:37;10.00;;;5.77;;
25950;SDS011;13748;52.240;6.002;2023-04-15T09:37:04;8.83;;;5.30;;
25950;SDS011;13748;52.240;6.002;2023-04-15T09:39:49;7.60;;;5.70;;
25950;SDS011;13748;52.240;6.002;2023-04-15T09:42:17;8.33;;;5.03;;
25950;SDS011;13748;52.240;6.002;2023-04-15T09:44:52;8.60;;;5.53;;
25950;SDS011;13748;52.240;6.002;2023-04-15T09:47:25;7.53;;;5.10;;
25950;SDS011;13748;52.240;6.002;2023-04-15T09:49:57;9.80;;;5.57;;
25950;SDS011;13748;52.240;6.002;2023-04-15T09:52:24;7.07;;;5.50;;
25950;SDS011;13748;52.240;6.002;2023-04-15T09:54:53;8.17;;;5.57;;
25950;SDS011;13748;52.240;6.002;2023-04-15T09:57:24;6.67;;;5.10;;
25950;SDS011;13748;52.240;6.002;2023-04-15T09:59:58;7.83;;;5.40;;
25950;SDS011;13748;52.240;6.002;2023-04-15T10:02:25;6.73;;;5.10;;
25950;SDS011;13748;52.240;6.002;2023-04-15T10:04:53;7.83;;;5.23;;
25950;SDS011;13748;52.240;6.002;2023-04-15T10:07:21;5.90;;;5.03;;
25950;SDS011;13748;52.240;6.002;2023-04-15T10:09:48;6.53;;;4.77;;
25950;SDS011;13748;52.240;6.002;2023-04-15T10:12:17;7.13;;;4.30;;
25950;SDS011;13748;52.240;6.002;2023-04-15T10:14:47;5.60;;;4.10;;
25950;SDS011;13748;52.240;6.002;2023-04-15T10:17:23;6.37;;;4.97;;
25950;SDS011;13748;52.240;6.002;2023-04-15T10:19:59;7.30;;;4.50;;
25950;SDS011;13748;52.240;6.002;2023-04-15T10:22:28;5.77;;;4.03;;
25950;SDS011;13748;52.240;6.002;2023-04-15T10:24:56;6.63;;;4.30;;
25950;SDS011;13748;52.240;6.002;2023-04-15T10:27:28;6.43;;;4.30;;
25950;SDS011;13748;52.240;6.002;2023-04-15T10:29:55;4.73;;;3.63;;
25950;SDS011;13748;52.240;6.002;2023-04-15T10:32:23;6.57;;;3.83;;
25950;SDS011;13748;52.240;6.002;2023-04-15T10:34:50;4.70;;;3.70;;
25950;SDS011;13748;52.240;6.002;2023-04-15T10:37:20;5.33;;;3.50;;
25950;SDS011;13748;52.240;6.002;2023-04-15T10:39:48;4.30;;;3.40;;
25950;SDS011;13748;52.240;6.002;2023-04-15T10:42:17;4.40;;;3.50;;
25950;SDS011;13748;52.240;6.002;2023-04-15T10:44:48;7.80;;;4.03;;
25950;SDS011;13748;52.240;6.002;2023-04-15T10:47:17;5.67;;;3.83;;
25950;SDS011;13748;52.240;6.002;2023-04-15T10:52:21;5.83;;;3.60;;
25950;SDS011;13748;52.240;6.002;2023-04-15T10:55:02;4.43;;;3.13;;
25950;SDS011;13748;52.240;6.002;2023-04-15T10:57:44;5.37;;;3.67;;
25950;SDS011;13748;52.240;6.002;2023-04-15T11:00:15;5.27;;;3.97;;
25950;SDS011;13748;52.240;6.002;2023-04-15T11:02:53;5.20;;;3.60;;
25950;SDS011;13748;52.240;6.002;2023-04-15T11:08:19;3.80;;;2.70;;
25950;SDS011;13748;52.240;6.002;2023-04-15T11:11:06;4.23;;;2.60;;
25950;SDS011;13748;52.240;6.002;2023-04-15T11:13:32;5.03;;;2.70;;
25950;SDS011;13748;52.240;6.002;2023-04-15T11:16:00;4.00;;;3.00;;
25950;SDS011;13748;52.240;6.002;2023-04-15T11:18:29;3.67;;;2.90;;
25950;SDS011;13748;52.240;6.002;2023-04-15T11:21:00;6.77;;;3.30;;
25950;SDS011;13748;52.240;6.002;2023-04-15T11:23:46;5.07;;;2.90;;
25950;SDS011;13748;52.240;6.002;2023-04-15T11:26:13;5.17;;;2.93;;
25950;SDS011;13748;52.240;6.002;2023-04-15T11:28:41;3.43;;;2.83;;
25950;SDS011;13748;52.240;6.002;2023-04-15T11:31:13;4.00;;;2.70;;
25950;SDS011;13748;52.240;6.002;2023-04-15T11:33:44;5.17;;;3.13;;
25950;SDS011;13748;52.240;6.002;2023-04-15T11:36:25;4.30;;;2.70;;
25950;SDS011;13748;52.240;6.002;2023-04-15T11:38:53;3.80;;;2.27;;
25950;SDS011;13748;52.240;6.002;2023-04-15T11:41:21;5.10;;;3.13;;
25950;SDS011;13748;52.240;6.002;2023-04-15T11:43:49;5.53;;;2.90;;
25950;SDS011;13748;52.240;6.002;2023-04-15T11:46:16;4.60;;;2.83;;
25950;SDS011;13748;52.240;6.002;2023-04-15T11:48:44;4.97;;;2.90;;
25950;SDS011;13748;52.240;6.002;2023-04-15T11:51:12;3.77;;;2.73;;
25950;SDS011;13748;52.240;6.002;2023-04-15T11:53:46;4.80;;;2.60;;
25950;SDS011;13748;52.240;6.002;2023-04-15T11:58:46;3.80;;;2.50;;
25950;SDS011;13748;52.240;6.002;2023-04-15T12:01:17;2.90;;;2.60;;
25950;SDS011;13748;52.240;6.002;2023-04-15T12:03:50;4.03;;;2.23;;
25950;SDS011;13748;52.240;6.002;2023-04-15T12:06:23;3.03;;;1.93;;
25950;SDS011;13748;52.240;6.002;2023-04-15T12:09:11;3.40;;;2.50;;
25950;SDS011;13748;52.240;6.002;2023-04-15T12:16:47;3.43;;;2.47;;
25950;SDS011;13748;52.240;6.002;2023-04-15T12:22:04;3.60;;;2.87;;
25950;SDS011;13748;52.240;6.002;2023-04-15T12:24:35;4.87;;;2.47;;
25950;SDS011;13748;52.240;6.002;2023-04-15T12:27:04;3.67;;;2.60;;
25950;SDS011;13748;52.240;6.002;2023-04-15T12:29:36;4.17;;;2.73;;
25950;SDS011;13748;52.240;6.002;2023-04-15T12:32:05;3.40;;;2.30;;
25950;SDS011;13748;52.240;6.002;2023-04-15T12:34:38;2.63;;;1.70;;
25950;SDS011;13748;52.240;6.002;2023-04-15T12:37:18;2.33;;;1.60;;
25950;SDS011;13748;52.240;6.002;2023-04-15T12:39:46;6.50;;;2.10;;
25950;SDS011;13748;52.240;6.002;2023-04-15T12:42:14;4.03;;;1.70;;
25950;SDS011;13748;52.240;6.002;2023-04-15T12:44:45;3.57;;;1.87;;
25950;SDS011;13748;52.240;6.002;2023-04-15T12:47:12;1.87;;;1.50;;
25950;SDS011;13748;52.240;6.002;2023-04-15T12:49:39;3.73;;;1.77;;
25950;SDS011;13748;52.240;6.002;2023-04-15T12:52:06;3.33;;;1.90;;
25950;SDS011;13748;52.240;6.002;2023-04-15T12:54:33;2.63;;;1.60;;
25950;SDS011;13748;52.240;6.002;2023-04-15T12:57:01;3.30;;;1.40;;
25950;SDS011;13748;52.240;6.002;2023-04-15T12:59:32;2.70;;;1.40;;
25950;SDS011;13748;52.240;6.002;2023-04-15T13:01:58;2.77;;;1.40;;
25950;SDS011;13748;52.240;6.002;2023-04-15T13:04:26;1.73;;;1.37;;
25950;SDS011;13748;52.240;6.002;2023-04-15T13:06:56;4.37;;;1.40;;
25950;SDS011;13748;52.240;6.002;2023-04-15T13:09:23;2.97;;;1.63;;
25950;SDS011;13748;52.240;6.002;2023-04-15T13:11:50;2.03;;;1.53;;
25950;SDS011;13748;52.240;6.002;2023-04-15T13:14:18;2.27;;;1.63;;
25950;SDS011;13748;52.240;6.002;2023-04-15T13:16:45;1.83;;;1.50;;
25950;SDS011;13748;52.240;6.002;2023-04-15T13:19:11;3.20;;;1.30;;
25950;SDS011;13748;52.240;6.002;2023-04-15T13:21:38;2.63;;;1.53;;
25950;SDS011;13748;52.240;6.002;2023-04-15T13:24:05;2.83;;;1.40;;
25950;SDS011;13748;52.240;6.002;2023-04-15T13:26:32;2.57;;;1.60;;
25950;SDS011;13748;52.240;6.002;2023-04-15T13:28:59;3.70;;;1.70;;
25950;SDS011;13748;52.240;6.002;2023-04-15T13:31:26;3.63;;;1.77;;
25950;SDS011;13748;52.240;6.002;2023-04-15T13:33:53;2.10;;;1.50;;
25950;SDS011;13748;52.240;6.002;2023-04-15T13:36:20;8.47;;;2.00;;
25950;SDS011;13748;52.240;6.002;2023-04-15T13:38:46;3.67;;;1.93;;
25950;SDS011;13748;52.240;6.002;2023-04-15T13:41:16;2.60;;;1.87;;
25950;SDS011;13748;52.240;6.002;2023-04-15T13:43:43;2.90;;;1.97;;
25950;SDS011;13748;52.240;6.002;2023-04-15T13:46:10;4.03;;;2.20;;
25950;SDS011;13748;52.240;6.002;2023-04-15T13:48:37;4.03;;;2.43;;
25950;SDS011;13748;52.240;6.002;2023-04-15T13:51:04;6.67;;;2.43;;
25950;SDS011;13748;52.240;6.002;2023-04-15T13:53:31;4.17;;;2.70;;
25950;SDS011;13748;52.240;6.002;2023-04-15T13:56:08;8.00;;;4.17;;
25950;SDS011;13748;52.240;6.002;2023-04-15T13:58:35;9.60;;;4.00;;
25950;SDS011;13748;52.240;6.002;2023-04-15T14:01:03;4.17;;;3.00;;
25950;SDS011;13748;52.240;6.002;2023-04-15T14:03:33;3.30;;;2.97;;
25950;SDS011;13748;52.240;6.002;2023-04-15T14:06:02;4.83;;;2.67;;
25950;SDS011;13748;52.240;6.002;2023-04-15T14:08:29;4.10;;;2.60;;
25950;SDS011;13748;52.240;6.002;2023-04-15T14:10:56;4.27;;;2.60;;
25950;SDS011;13748;52.240;6.002;2023-04-15T14:13:23;10.47;;;4.70;;
25950;SDS011;13748;52.240;6.002;2023-04-15T14:15:50;5.43;;;3.07;;
25950;SDS011;13748;52.240;6.002;2023-04-15T14:18:17;5.10;;;2.93;;
25950;SDS011;13748;52.240;6.002;2023-04-15T14:20:44;5.77;;;3.17;;
25950;SDS011;13748;52.240;6.002;2023-04-15T14:23:10;10.60;;;2.43;;
25950;SDS011;13748;52.240;6.002;2023-04-15T14:25:37;7.07;;;3.10;;
25950;SDS011;13748;52.240;6.002;2023-04-15T14:28:07;5.40;;;2.93;;
25950;SDS011;13748;52.240;6.002;2023-04-15T14:30:34;7.07;;;2.90;;
25950;SDS011;13748;52.240;6.002;2023-04-15T14:33:01;7.70;;;3.20;;
25950;SDS011;13748;52.240;6.002;2023-04-15T14:35:28;7.93;;;3.30;;
25950;SDS011;13748;52.240;6.002;2023-04-15T14:37:56;8.03;;;3.23;;
25950;SDS011;13748;52.240;6.002;2023-04-15T14:40:22;6.13;;;3.30;;
25950;SDS011;13748;52.240;6.002;2023-04-15T14:42:49;11.00;;;3.00;;
25950;SDS011;13748;52.240;6.002;2023-04-15T14:45:16;8.30;;;3.13;;
25950;SDS011;13748;52.240;6.002;2023-04-15T14:47:43;6.77;;;2.80;;
25950;SDS011;13748;52.240;6.002;2023-04-15T14:50:10;6.60;;;2.43;;
25950;SDS011;13748;52.240;6.002;2023-04-15T14:52:37;9.70;;;2.73;;
25950;SDS011;13748;52.240;6.002;2023-04-15T14:55:08;5.80;;;2.60;;